Time;durP1;ratioP1;P1;durP2;ratioP2;P2;SDS_P1;SDS_P2;PMS_P1;PMS_P2;Temp;Humidity;BMP_temperature;BMP_pressure;BME280_temperature;BME280_humidity;BME280_pressure;Samples;Min_cycle;Max_cycle;Signal;HPM_P1;HPM_P2
2022/07/29 00:00:44;;;;;;;2.35;1.50;;;15.00;99.40;;;;;;5028613;28;20064;-82
2022/07/29 00:03:13;;;;;;;1.60;1.20;;;15.00;99.60;;;;;;5010124;28;20029;-82
2022/07/29 00:05:40;;;;;;;2.17;1.38;;;15.00;99.60;;;;;;5027184;28;20041;-83
2022/07/29 00:08:06;;;;;;;3.70;1.77;;;15.00;99.80;;;;;;5021292;28;20041;-82
2022/07/29 00:10:32;;;;;;;1.67;1.30;;;15.00;99.80;;;;;;5019648;28;20056;-82
2022/07/29 00:12:58;;;;;;;3.17;1.60;;;14.90;99.90;;;;;;4999669;28;20037;-82
2022/07/29 00:15:23;;;;;;;4.30;1.75;;;15.00;99.90;;;;;;5013726;28;20090;-82
2022/07/29 00:17:49;;;;;;;2.83;1.70;;;15.00;99.90;;;;;;5008098;28;20514;-83
2022/07/29 00:20:15;;;;;;;1.90;1.45;;;15.00;99.90;;;;;;5008369;28;20083;-82
2022/07/29 00:22:40;;;;;;;3.80;1.55;;;15.00;99.90;;;;;;5009372;28;20033;-82
2022/07/29 00:25:07;;;;;;;1.42;1.30;;;15.00;99.90;;;;;;5014851;28;20033;-82
2022/07/29 00:27:34;;;;;;;2.78;1.58;;;14.90;99.90;;;;;;5007128;28;20514;-81
2022/07/29 00:30:00;;;;;;;2.38;1.30;;;14.90;99.80;;;;;;5022611;28;20056;-83
2022/07/29 00:32:26;;;;;;;2.97;1.30;;;14.90;99.70;;;;;;4996143;28;20037;-82
2022/07/29 00:37:35;;;;;;;2.20;1.50;;;14.90;99.90;;;;;;5015891;28;20403;-82
2022/07/29 00:40:01;;;;;;;3.80;1.65;;;14.90;99.90;;;;;;5003041;28;20029;-82
2022/07/29 00:42:27;;;;;;;3.80;1.40;;;14.90;99.90;;;;;;5008619;28;20040;-82
2022/07/29 00:44:53;;;;;;;2.85;1.50;;;14.80;99.90;;;;;;5013534;28;20399;-83
2022/07/29 00:47:18;;;;;;;3.25;1.52;;;14.80;99.90;;;;;;5010746;28;20072;-82
2022/07/29 00:49:44;;;;;;;2.45;1.48;;;14.80;99.90;;;;;;5019050;28;20041;-82
2022/07/29 00:52:11;;;;;;;2.53;1.63;;;14.80;99.90;;;;;;5011878;28;20477;-82
2022/07/29 00:54:38;;;;;;;2.00;1.50;;;14.80;99.90;;;;;;5024711;28;20124;-82
2022/07/29 00:57:07;;;;;;;3.22;1.50;;;14.80;99.90;;;;;;5016204;28;20530;-81
2022/07/29 00:59:34;;;;;;;2.70;1.58;;;14.90;99.90;;;;;;5009026;28;20025;-82
2022/07/29 01:01:59;;;;;;;1.88;1.40;;;14.80;99.90;;;;;;5003925;28;20044;-82
2022/07/29 01:04:25;;;;;;;1.98;1.40;;;14.90;99.90;;;;;;5019448;28;20053;-83
2022/07/29 01:06:51;;;;;;;2.63;1.42;;;14.80;99.90;;;;;;4998299;28;20102;-82
2022/07/29 01:09:18;;;;;;;2.00;1.60;;;14.80;99.90;;;;;;5012173;28;20077;-82
2022/07/29 01:11:45;;;;;;;2.97;1.65;;;14.80;99.90;;;;;;4996565;28;20030;-82
2022/07/29 01:14:12;;;;;;;1.90;1.50;;;14.80;99.90;;;;;;5009055;28;20155;-82
2022/07/29 01:16:46;;;;;;;2.38;1.88;;;14.80;99.90;;;;;;5001936;28;20039;-82
2022/07/29 01:19:44;;;;;;;2.35;1.42;;;14.80;99.90;;;;;;5010160;28;20029;-82
2022/07/29 01:22:34;;;;;;;3.70;1.67;;;14.80;99.90;;;;;;5006618;28;20069;-81
2022/07/29 01:25:28;;;;;;;2.80;1.50;;;14.80;99.90;;;;;;4979576;28;20042;-83
2022/07/29 01:28:03;;;;;;;3.33;1.90;;;14.80;99.90;;;;;;4999413;28;20361;-82
2022/07/29 01:30:29;;;;;;;3.63;1.65;;;14.70;99.90;;;;;;4998848;28;20042;-82
2022/07/29 01:33:01;;;;;;;2.83;1.35;;;14.80;99.90;;;;;;5004784;28;20354;-82
2022/07/29 01:35:35;;;;;;;4.20;1.92;;;14.70;99.90;;;;;;5011009;28;20115;-82
2022/07/29 01:38:12;;;;;;;3.05;1.58;;;14.70;99.90;;;;;;5003583;28;20037;-82
2022/07/29 01:40:52;;;;;;;2.08;1.42;;;14.80;99.90;;;;;;5014178;28;20041;-82
2022/07/29 01:43:36;;;;;;;3.80;1.50;;;14.70;99.90;;;;;;5009993;28;20045;-81
2022/07/29 01:46:06;;;;;;;3.08;1.60;;;14.70;99.90;;;;;;5023228;28;20043;-82
2022/07/29 01:48:55;;;;;;;3.30;1.70;;;14.80;99.90;;;;;;5004920;28;20041;-82
2022/07/29 01:51:27;;;;;;;4.03;1.50;;;14.70;99.90;;;;;;5006814;28;20569;-82
2022/07/29 01:54:01;;;;;;;3.65;1.70;;;14.90;99.90;;;;;;5015113;28;20119;-82
2022/07/29 01:56:30;;;;;;;2.20;1.40;;;14.80;99.90;;;;;;5026195;28;20037;-82
2022/07/29 01:58:58;;;;;;;3.65;1.90;;;14.70;99.90;;;;;;5017659;28;20075;-82
2022/07/29 02:01:24;;;;;;;2.40;1.38;;;14.70;99.90;;;;;;5013035;28;20319;-82
2022/07/29 02:03:52;;;;;;;3.63;1.75;;;14.80;99.90;;;;;;5009519;28;20036;-82
2022/07/29 02:06:21;;;;;;;2.45;1.48;;;14.80;99.90;;;;;;5008250;28;20095;-83
2022/07/29 02:08:48;;;;;;;2.10;1.40;;;14.70;99.90;;;;;;5021894;28;20073;-82
2022/07/29 02:11:14;;;;;;;3.05;1.70;;;14.80;99.90;;;;;;5008853;28;20029;-80
2022/07/29 02:13:42;;;;;;;2.47;1.50;;;14.70;99.90;;;;;;5025743;28;20040;-83
2022/07/29 02:16:09;;;;;;;3.22;1.70;;;14.70;99.90;;;;;;5017604;28;20044;-82
2022/07/29 02:18:37;;;;;;;2.63;1.60;;;14.70;99.90;;;;;;5033871;28;20033;-82
2022/07/29 02:21:03;;;;;;;3.28;1.52;;;14.70;99.90;;;;;;5017600;28;20075;-81
2022/07/29 02:23:32;;;;;;;3.17;1.50;;;14.70;99.90;;;;;;5015884;28;20042;-83
2022/07/29 02:25:58;;;;;;;2.53;1.42;;;14.60;99.90;;;;;;5028128;28;20120;-82
2022/07/29 02:28:28;;;;;;;3.50;1.60;;;14.70;99.90;;;;;;5023603;28;20041;-82
2022/07/29 02:30:57;;;;;;;4.35;1.50;;;14.70;99.90;;;;;;5033750;28;20037;-82
2022/07/29 02:33:24;;;;;;;3.40;1.50;;;14.70;99.90;;;;;;5017366;28;20032;-82
2022/07/29 02:35:50;;;;;;;3.38;1.50;;;14.70;99.90;;;;;;5012733;28;20158;-82
2022/07/29 02:41:18;;;;;;;2.83;1.52;;;14.60;99.90;;;;;;4992219;28;20041;-81
2022/07/29 02:43:48;;;;;;;3.10;1.38;;;14.50;99.90;;;;;;5005392;28;20033;-82
2022/07/29 02:46:18;;;;;;;3.65;1.50;;;14.60;99.90;;;;;;5005378;28;20033;-81
2022/07/29 02:48:55;;;;;;;3.83;1.38;;;14.50;99.90;;;;;;5032198;28;20045;-81
2022/07/29 02:51:28;;;;;;;3.63;1.60;;;14.60;99.90;;;;;;5024562;28;20033;-82
2022/07/29 02:53:57;;;;;;;3.28;1.45;;;14.50;99.90;;;;;;5026450;28;20399;-81
2022/07/29 02:56:34;;;;;;;2.45;1.50;;;14.60;99.90;;;;;;5017121;28;20083;-82
2022/07/29 02:59:03;;;;;;;2.30;1.52;;;14.60;99.90;;;;;;5010212;28;20035;-82
2022/07/29 03:01:32;;;;;;;4.97;1.63;;;14.50;99.90;;;;;;5025166;28;20487;-82
2022/07/29 03:04:02;;;;;;;2.78;1.50;;;14.50;99.90;;;;;;5028129;28;20041;-81
2022/07/29 03:06:29;;;;;;;4.90;1.50;;;14.50;99.90;;;;;;5005383;28;20041;-81
2022/07/29 03:08:56;;;;;;;2.00;1.50;;;14.40;99.90;;;;;;5003860;28;20164;-82
2022/07/29 03:11:22;;;;;;;4.35;1.20;;;14.40;99.90;;;;;;5011553;28;20086;-81
2022/07/29 03:13:49;;;;;;;2.40;1.48;;;14.40;99.90;;;;;;4998227;28;20042;-82
2022/07/29 03:16:15;;;;;;;2.63;1.40;;;14.40;99.90;;;;;;4995702;28;20040;-81
2022/07/29 03:18:41;;;;;;;3.67;1.50;;;14.40;99.90;;;;;;4998161;28;20088;-82
2022/07/29 03:21:08;;;;;;;2.60;1.80;;;14.30;99.90;;;;;;5028773;28;20041;-82
2022/07/29 03:23:33;;;;;;;4.45;1.60;;;14.30;99.90;;;;;;5033188;28;20025;-82
2022/07/29 03:25:59;;;;;;;2.15;1.40;;;14.30;99.90;;;;;;5012440;28;20032;-82
2022/07/29 03:28:27;;;;;;;2.45;1.50;;;14.20;99.90;;;;;;5013263;28;20076;-82
2022/07/29 03:30:53;;;;;;;2.78;1.45;;;14.20;99.90;;;;;;5008234;28;20029;-82
2022/07/29 03:33:18;;;;;;;2.42;1.42;;;14.20;99.90;;;;;;5022983;28;20035;-81
2022/07/29 03:35:44;;;;;;;2.28;1.63;;;14.20;99.90;;;;;;5020262;28;20059;-82
2022/07/29 03:38:09;;;;;;;2.53;1.48;;;14.20;99.90;;;;;;5036860;28;20073;-82
2022/07/29 03:40:44;;;;;;;3.30;1.85;;;14.10;99.90;;;;;;5029540;28;20551;-82
2022/07/29 03:43:11;;;;;;;2.20;1.52;;;14.10;99.90;;;;;;5028450;28;20065;-82
2022/07/29 03:45:37;;;;;;;2.80;1.80;;;14.00;99.90;;;;;;5011720;28;20050;-82
2022/07/29 03:48:10;;;;;;;3.25;1.90;;;14.10;99.90;;;;;;5008151;28;20038;-82
2022/07/29 03:50:36;;;;;;;3.65;1.60;;;14.00;99.90;;;;;;5017734;28;20503;-81
2022/07/29 03:53:02;;;;;;;4.32;1.88;;;14.00;99.90;;;;;;5031789;28;20033;-82
2022/07/29 03:55:31;;;;;;;2.20;1.65;;;14.00;99.90;;;;;;5010312;28;20124;-82
2022/07/29 03:57:58;;;;;;;3.47;1.60;;;14.10;99.90;;;;;;5004528;28;20124;-82
2022/07/29 04:00:25;;;;;;;2.63;1.55;;;14.00;99.90;;;;;;5012836;28;20040;-82
2022/07/29 04:02:50;;;;;;;3.85;1.88;;;13.90;99.90;;;;;;5010612;28;20037;-82
2022/07/29 04:05:17;;;;;;;2.85;1.65;;;13.90;99.90;;;;;;5011966;28;20503;-82
2022/07/29 04:07:49;;;;;;;3.38;1.65;;;13.90;99.90;;;;;;5013202;28;20033;-82
2022/07/29 04:10:16;;;;;;;2.53;1.50;;;13.90;99.90;;;;;;5028227;28;20041;-82
2022/07/29 04:12:42;;;;;;;3.53;1.55;;;13.90;99.90;;;;;;5011956;28;20392;-82
2022/07/29 04:15:08;;;;;;;4.07;2.00;;;13.90;99.90;;;;;;5012236;28;20036;-82
2022/07/29 04:17:34;;;;;;;4.97;1.80;;;13.90;99.90;;;;;;5026340;28;20056;-81
2022/07/29 04:19:59;;;;;;;3.13;1.70;;;13.90;99.90;;;;;;5012234;28;20448;-82
2022/07/29 04:22:25;;;;;;;2.60;1.50;;;13.90;99.90;;;;;;5012353;28;20033;-82
2022/07/29 04:24:51;;;;;;;2.88;1.65;;;13.80;99.90;;;;;;5037220;28;20530;-82
2022/07/29 04:27:16;;;;;;;2.08;1.60;;;13.80;99.90;;;;;;5018425;28;20052;-81
2022/07/29 04:29:42;;;;;;;4.75;2.00;;;13.70;99.90;;;;;;5011253;28;20044;-82
2022/07/29 04:32:07;;;;;;;2.67;1.80;;;13.80;99.90;;;;;;5023814;28;20040;-82
2022/07/29 04:34:33;;;;;;;3.65;1.95;;;13.80;99.90;;;;;;5027552;28;20045;-82
2022/07/29 04:36:59;;;;;;;3.42;1.67;;;13.80;99.90;;;;;;5023570;28;20033;-82
2022/07/29 04:39:24;;;;;;;2.97;1.63;;;13.80;99.90;;;;;;5015455;28;20171;-83
2022/07/29 04:41:50;;;;;;;2.30;1.60;;;13.80;99.90;;;;;;5000409;28;20048;-82
2022/07/29 04:44:16;;;;;;;2.85;1.88;;;13.80;99.90;;;;;;5007331;28;20037;-82
2022/07/29 04:46:41;;;;;;;3.00;1.88;;;13.80;99.90;;;;;;5009421;28;20510;-81
2022/07/29 04:49:07;;;;;;;2.65;1.60;;;13.80;99.90;;;;;;5012944;28;20045;-82
2022/07/29 04:51:33;;;;;;;3.40;1.73;;;13.80;99.90;;;;;;5026219;28;20045;-81
2022/07/29 04:53:59;;;;;;;3.30;1.92;;;13.80;99.90;;;;;;5016181;28;20543;-82
2022/07/29 04:56:24;;;;;;;2.80;1.67;;;13.90;99.90;;;;;;5005805;28;20037;-81
2022/07/29 04:58:50;;;;;;;3.97;1.67;;;13.90;99.90;;;;;;5026672;28;20060;-82
2022/07/29 05:01:16;;;;;;;4.53;1.80;;;14.00;99.90;;;;;;5027990;28;20088;-82
2022/07/29 05:03:41;;;;;;;5.35;1.85;;;14.00;99.90;;;;;;4998394;28;20487;-82
2022/07/29 05:06:07;;;;;;;2.97;1.63;;;13.90;99.90;;;;;;5021698;28;20037;-82
2022/07/29 05:08:33;;;;;;;3.38;1.55;;;14.00;99.90;;;;;;5031619;28;20040;-81
2022/07/29 05:10:58;;;;;;;4.03;1.63;;;14.00;99.90;;;;;;5018216;28;20029;-81
2022/07/29 05:13:24;;;;;;;3.00;1.70;;;14.00;99.90;;;;;;5010746;28;20368;-82
2022/07/29 05:15:49;;;;;;;3.60;1.80;;;14.10;99.90;;;;;;5031659;28;20095;-82
2022/07/29 05:18:15;;;;;;;2.28;1.60;;;14.10;99.90;;;;;;5004157;28;20550;-82
2022/07/29 05:20:41;;;;;;;3.42;1.80;;;14.10;99.90;;;;;;5008407;28;20029;-82
2022/07/29 05:23:07;;;;;;;3.65;1.80;;;14.10;99.90;;;;;;5018310;28;20033;-82
2022/07/29 05:25:33;;;;;;;3.00;1.73;;;14.20;99.90;;;;;;5008492;28;20120;-82
2022/07/29 05:27:58;;;;;;;2.78;1.75;;;14.20;99.90;;;;;;5011620;28;20082;-82
2022/07/29 05:30:24;;;;;;;2.90;1.67;;;14.30;99.90;;;;;;5014626;28;20048;-82
2022/07/29 05:32:50;;;;;;;2.35;1.73;;;14.30;99.90;;;;;;5009368;28;20111;-82
2022/07/29 05:35:16;;;;;;;3.53;2.13;;;14.40;99.90;;;;;;5007601;28;20411;-81
2022/07/29 05:37:42;;;;;;;2.85;1.70;;;14.40;99.90;;;;;;5009495;28;20408;-82
2022/07/29 05:40:08;;;;;;;2.80;1.90;;;14.40;99.90;;;;;;5023861;28;20033;-81
2022/07/29 05:42:34;;;;;;;3.38;1.85;;;14.40;99.90;;;;;;5007315;28;20057;-82
2022/07/29 05:45:01;;;;;;;4.03;1.80;;;14.50;99.90;;;;;;5018748;28;20407;-82
2022/07/29 05:47:26;;;;;;;3.45;1.83;;;14.60;99.90;;;;;;5018114;28;20048;-82
2022/07/29 05:49:52;;;;;;;3.00;1.85;;;14.60;99.90;;;;;;5018048;28;20046;-82
2022/07/29 05:52:18;;;;;;;3.47;1.85;;;14.60;99.90;;;;;;5004147;28;20086;-82
2022/07/29 05:54:44;;;;;;;6.53;1.90;;;14.70;99.90;;;;;;5007540;28;20041;-82
2022/07/29 05:57:21;;;;;;;3.33;1.70;;;14.70;99.90;;;;;;5014701;28;20043;-82
2022/07/29 05:59:47;;;;;;;2.60;1.95;;;14.70;99.90;;;;;;5013945;28;20077;-81
2022/07/29 06:02:12;;;;;;;2.75;1.67;;;14.80;99.90;;;;;;5005434;28;20044;-82
2022/07/29 06:04:38;;;;;;;2.92;1.60;;;14.80;99.90;;;;;;5009621;28;20128;-82
2022/07/29 06:07:04;;;;;;;2.92;1.90;;;14.80;99.90;;;;;;5024598;28;20037;-82
2022/07/29 06:09:30;;;;;;;4.97;1.92;;;14.90;99.90;;;;;;5003745;28;20047;-81
2022/07/29 06:11:56;;;;;;;2.78;1.63;;;14.90;99.90;;;;;;5017559;28;20049;-81
2022/07/29 06:14:21;;;;;;;4.07;1.98;;;14.90;99.90;;;;;;5011404;28;20029;-82
2022/07/29 06:16:47;;;;;;;2.72;1.55;;;14.90;99.90;;;;;;5008627;28;20045;-82
2022/07/29 06:19:12;;;;;;;4.90;1.80;;;15.00;99.90;;;;;;5025136;28;20040;-82
2022/07/29 06:21:43;;;;;;;2.88;1.85;;;15.00;99.90;;;;;;5008786;28;20502;-82
2022/07/29 06:24:10;;;;;;;4.30;1.65;;;15.00;99.90;;;;;;5003885;28;20044;-82
2022/07/29 06:26:35;;;;;;;2.70;1.63;;;15.00;99.90;;;;;;5014172;28;20128;-82
2022/07/29 06:29:01;;;;;;;3.35;2.03;;;15.00;99.90;;;;;;5013967;28;20128;-82
2022/07/29 06:31:26;;;;;;;2.90;2.05;;;15.00;99.90;;;;;;4997875;28;20046;-82
2022/07/29 06:33:52;;;;;;;3.22;1.90;;;14.90;99.90;;;;;;5004954;28;20377;-82
2022/07/29 06:36:18;;;;;;;3.65;2.05;;;15.00;99.90;;;;;;5028273;28;20037;-82
2022/07/29 06:38:44;;;;;;;2.88;1.92;;;15.00;99.90;;;;;;5015193;28;20069;-82
2022/07/29 06:41:12;;;;;;;3.17;1.83;;;14.90;99.90;;;;;;4997746;28;20034;-82
2022/07/29 06:43:41;;;;;;;4.35;2.10;;;15.00;99.90;;;;;;5013921;28;20037;-82
2022/07/29 06:46:10;;;;;;;3.90;1.67;;;14.90;99.90;;;;;;5005290;28;20050;-82
2022/07/29 06:48:35;;;;;;;3.60;1.85;;;14.90;99.90;;;;;;5013438;28;20037;-81
2022/07/29 06:51:02;;;;;;;3.92;2.17;;;14.90;99.90;;;;;;4999344;28;20059;-82
2022/07/29 06:53:28;;;;;;;3.30;2.05;;;15.00;99.90;;;;;;5009632;28;20030;-82
2022/07/29 06:55:54;;;;;;;4.70;2.22;;;15.00;99.90;;;;;;4998239;28;20038;-81
2022/07/29 06:58:20;;;;;;;3.38;2.03;;;15.10;99.90;;;;;;4998171;28;20075;-82
2022/07/29 07:00:47;;;;;;;4.50;2.50;;;15.20;99.90;;;;;;4999959;28;20411;-81
2022/07/29 07:03:13;;;;;;;5.93;2.20;;;15.30;99.90;;;;;;5005749;28;20083;-81
2022/07/29 07:05:39;;;;;;;3.33;1.83;;;15.40;99.90;;;;;;5014060;28;20042;-82
2022/07/29 07:08:05;;;;;;;4.78;2.00;;;15.50;99.90;;;;;;4999138;28;20037;-81
2022/07/29 07:10:30;;;;;;;6.38;1.73;;;15.60;99.90;;;;;;5009064;28;20036;-82
2022/07/29 07:12:56;;;;;;;3.70;2.03;;;15.60;99.90;;;;;;5004002;28;20536;-84
2022/07/29 07:15:22;;;;;;;3.40;1.80;;;15.60;99.90;;;;;;5015496;28;20036;-83
2022/07/29 07:17:48;;;;;;;2.80;1.92;;;15.60;99.90;;;;;;4998471;28;20380;-84
2022/07/29 07:20:15;;;;;;;4.07;2.00;;;15.70;99.90;;;;;;4996773;28;20037;-83
2022/07/29 07:22:41;;;;;;;4.47;2.33;;;15.70;99.90;;;;;;5006974;28;20063;-84
2022/07/29 07:25:07;;;;;;;2.67;2.15;;;15.70;99.90;;;;;;5006029;28;20503;-81
2022/07/29 07:27:32;;;;;;;3.40;1.98;;;15.70;99.90;;;;;;5028431;28;20033;-84
2022/07/29 07:29:58;;;;;;;5.10;1.90;;;15.80;99.90;;;;;;5010196;28;20041;-84
2022/07/29 07:32:24;;;;;;;3.60;2.00;;;15.60;99.90;;;;;;5008327;28;20044;-84
2022/07/29 07:34:49;;;;;;;5.25;2.00;;;15.70;99.90;;;;;;5029895;28;20033;-83
2022/07/29 07:37:15;;;;;;;4.57;2.28;;;15.80;99.90;;;;;;5013953;28;20095;-84
2022/07/29 07:39:41;;;;;;;4.93;2.53;;;15.80;99.90;;;;;;5018661;28;20033;-84
2022/07/29 07:42:07;;;;;;;4.60;2.03;;;15.70;99.90;;;;;;5001218;28;20025;-84
2022/07/29 07:44:32;;;;;;;3.75;2.00;;;15.70;99.90;;;;;;5008236;28;20106;-85
2022/07/29 07:46:58;;;;;;;4.07;2.10;;;15.60;99.90;;;;;;5012953;28;20037;-86
2022/07/29 07:49:23;;;;;;;4.70;2.35;;;15.60;99.90;;;;;;5013853;28;20129;-86
2022/07/29 07:51:49;;;;;;;4.38;2.20;;;15.60;99.90;;;;;;5007838;28;20045;-86
2022/07/29 07:54:15;;;;;;;4.45;2.20;;;15.50;99.90;;;;;;5020239;28;20037;-85
2022/07/29 07:56:40;;;;;;;3.40;2.28;;;15.50;99.90;;;;;;5020205;28;20041;-84
2022/07/29 07:59:06;;;;;;;4.03;2.22;;;15.40;99.90;;;;;;5036965;28;20118;-85
2022/07/29 08:01:32;;;;;;;3.67;2.20;;;15.50;99.90;;;;;;5013689;28;20037;-85
2022/07/29 08:03:57;;;;;;;6.60;2.47;;;15.40;99.90;;;;;;5012790;28;20096;-85
2022/07/29 08:06:24;;;;;;;5.75;2.20;;;15.50;99.90;;;;;;5020535;28;20033;-85
2022/07/29 08:08:50;;;;;;;3.28;2.15;;;15.50;99.90;;;;;;5033194;28;20044;-85
2022/07/29 08:11:16;;;;;;;3.47;2.50;;;15.60;99.90;;;;;;5008576;28;20037;-85
2022/07/29 08:13:42;;;;;;;4.70;2.47;;;15.80;99.90;;;;;;5019876;28;20150;-85
2022/07/29 08:16:12;;;;;;;5.07;2.17;;;15.80;99.90;;;;;;5011489;28;20041;-85
2022/07/29 08:18:39;;;;;;;3.70;2.40;;;16.00;99.90;;;;;;5016798;28;20029;-85
2022/07/29 08:21:05;;;;;;;4.47;2.40;;;16.00;99.90;;;;;;5005541;28;20235;-83
2022/07/29 08:23:38;;;;;;;2.70;2.20;;;16.10;99.90;;;;;;5023111;28;20029;-85
2022/07/29 08:26:05;;;;;;;3.70;2.50;;;16.20;99.90;;;;;;5006137;28;20041;-85
2022/07/29 08:28:30;;;;;;;5.75;2.63;;;16.30;99.90;;;;;;5000342;28;20041;-88
2022/07/29 08:30:56;;;;;;;5.07;2.58;;;16.40;99.90;;;;;;5010839;28;20418;-85
2022/07/29 08:33:22;;;;;;;3.22;2.65;;;16.50;99.90;;;;;;5006249;28;20033;-85
2022/07/29 08:35:47;;;;;;;4.47;2.50;;;16.60;99.90;;;;;;5004418;28;20476;-86
2022/07/29 08:38:13;;;;;;;3.13;2.50;;;16.70;99.90;;;;;;5019724;28;20084;-86
2022/07/29 08:40:39;;;;;;;3.22;2.50;;;16.80;99.90;;;;;;5008439;28;20527;-86
2022/07/29 08:43:07;;;;;;;3.72;2.30;;;16.90;99.90;;;;;;5010364;28;20107;-84
2022/07/29 08:45:52;;;;;;;4.20;2.65;;;17.10;99.90;;;;;;4995834;28;20038;-84
2022/07/29 08:48:20;;;;;;;3.58;2.40;;;17.10;99.90;;;;;;5027331;28;20029;-84
2022/07/29 08:50:49;;;;;;;5.47;2.67;;;17.20;99.90;;;;;;5019147;28;20106;-84
2022/07/29 08:53:17;;;;;;;3.78;2.58;;;17.20;99.90;;;;;;5019149;28;20044;-85
2022/07/29 08:55:45;;;;;;;3.90;2.00;;;17.20;99.90;;;;;;5012242;28;20095;-85
2022/07/29 08:58:11;;;;;;;4.40;2.45;;;17.30;99.90;;;;;;5007370;28;20025;-84
2022/07/29 09:01:01;;;;;;;3.67;2.28;;;17.30;99.90;;;;;;5033587;28;20033;-84
2022/07/29 09:03:31;;;;;;;3.95;2.25;;;17.40;99.90;;;;;;5018137;28;20051;-84
2022/07/29 09:05:58;;;;;;;2.58;2.03;;;17.60;99.90;;;;;;5035474;28;20041;-85
2022/07/29 09:08:25;;;;;;;3.75;2.10;;;17.60;99.90;;;;;;5018770;28;20049;-84
2022/07/29 09:10:51;;;;;;;3.92;1.98;;;17.80;99.90;;;;;;5005175;28;20056;-84
2022/07/29 09:13:17;;;;;;;4.75;2.33;;;17.90;99.90;;;;;;5010069;28;20372;-85
2022/07/29 09:15:44;;;;;;;4.68;2.10;;;17.90;99.90;;;;;;5004827;28;20046;-84
2022/07/29 09:18:10;;;;;;;4.07;1.85;;;17.90;99.90;;;;;;5018736;28;20492;-85
2022/07/29 09:23:19;;;;;;;4.30;2.33;;;18.00;99.90;;;;;;5027595;28;20033;-83
2022/07/29 09:25:45;;;;;;;3.65;2.15;;;18.20;99.90;;;;;;5017652;28;20128;-82
2022/07/29 09:28:14;;;;;;;4.63;1.83;;;18.30;99.90;;;;;;5023130;28;20033;-82
2022/07/29 09:30:54;;;;;;;5.72;2.45;;;18.40;99.90;;;;;;5015691;28;20484;-84
2022/07/29 09:33:21;;;;;;;4.20;2.10;;;18.40;99.90;;;;;;5003446;28;20038;-84
2022/07/29 09:35:59;;;;;;;4.18;2.05;;;18.50;99.90;;;;;;5016393;28;20041;-84
2022/07/29 09:38:24;;;;;;;2.55;1.88;;;18.70;99.90;;;;;;5003613;28;20047;-83
2022/07/29 09:40:57;;;;;;;4.38;2.17;;;18.80;99.90;;;;;;5007121;28;20128;-84
2022/07/29 09:43:23;;;;;;;4.88;2.08;;;18.90;99.90;;;;;;4999030;28;20395;-84
2022/07/29 09:45:49;;;;;;;4.38;2.17;;;18.90;99.90;;;;;;5004195;28;20135;-84
2022/07/29 09:48:20;;;;;;;3.58;1.88;;;19.00;99.90;;;;;;5007735;28;20483;-84
2022/07/29 09:50:49;;;;;;;3.47;1.70;;;19.10;99.90;;;;;;5018811;28;20040;-84
2022/07/29 09:53:30;;;;;;;2.47;2.00;;;19.20;99.90;;;;;;5006655;28;20045;-84
2022/07/29 09:55:56;;;;;;;4.38;1.95;;;19.20;99.80;;;;;;5021460;28;20045;-84
2022/07/29 09:58:22;;;;;;;5.95;1.90;;;19.30;99.90;;;;;;5005926;28;20496;-84
2022/07/29 10:00:50;;;;;;;2.70;1.95;;;19.40;99.90;;;;;;5001137;28;20033;-84
2022/07/29 10:03:16;;;;;;;4.78;2.17;;;19.60;99.80;;;;;;5014534;28;20064;-83
2022/07/29 10:05:43;;;;;;;3.22;1.90;;;19.70;99.00;;;;;;5016773;28;20045;-84
2022/07/29 10:08:10;;;;;;;4.97;2.20;;;20.00;99.20;;;;;;5025555;28;20090;-84
2022/07/29 10:10:38;;;;;;;3.28;1.80;;;20.30;99.10;;;;;;4991452;28;20041;-84
2022/07/29 10:13:12;;;;;;;3.13;1.50;;;20.70;98.20;;;;;;5016508;28;20033;-84
2022/07/29 10:15:44;;;;;;;5.55;2.45;;;21.00;97.00;;;;;;5024588;28;20501;-84
2022/07/29 10:18:11;;;;;;;5.55;2.10;;;21.00;95.90;;;;;;4993397;28;20029;-87
2022/07/29 10:20:38;;;;;;;4.38;1.88;;;20.90;94.50;;;;;;5015528;28;20047;-84
2022/07/29 10:23:05;;;;;;;4.35;1.90;;;20.90;93.80;;;;;;5027368;28;20033;-82
2022/07/29 10:25:31;;;;;;;2.58;1.60;;;20.80;93.80;;;;;;5013444;28;20037;-81
2022/07/29 10:27:57;;;;;;;3.22;1.83;;;20.80;93.90;;;;;;5017165;28;20068;-81
2022/07/29 10:30:24;;;;;;;3.55;2.10;;;20.90;93.50;;;;;;5022026;28;20072;-82
2022/07/29 10:33:23;;;;;;;4.53;2.13;;;21.10;93.10;;;;;;5011729;28;20442;-81
2022/07/29 10:36:15;;;;;;;5.43;2.53;;;21.20;92.40;;;;;;5030120;28;20077;-81
2022/07/29 10:39:04;;;;;;;2.20;1.80;;;21.20;91.60;;;;;;5014142;28;20498;-81
2022/07/29 10:42:07;;;;;;;3.42;2.03;;;21.10;90.80;;;;;;4968489;28;20137;-81
2022/07/29 10:44:33;;;;;;;3.67;2.00;;;21.00;90.80;;;;;;5003293;28;20033;-81
2022/07/29 10:46:59;;;;;;;3.17;1.80;;;21.00;92.00;;;;;;5010175;28;20041;-81
2022/07/29 10:49:26;;;;;;;4.15;2.03;;;21.10;91.50;;;;;;5025554;28;20045;-81
2022/07/29 10:52:01;;;;;;;4.18;2.28;;;21.10;91.00;;;;;;5033603;28;20040;-82
2022/07/29 10:54:35;;;;;;;3.92;1.80;;;21.00;90.30;;;;;;5033693;28;20044;-84
2022/07/29 10:57:29;;;;;;;4.13;2.13;;;20.90;89.10;;;;;;5009011;28;20091;-81
2022/07/29 11:00:14;;;;;;;2.42;1.75;;;20.90;87.80;;;;;;5000101;28;20772;-81
2022/07/29 11:02:40;;;;;;;4.35;2.38;;;20.80;88.00;;;;;;5022357;28;20040;-82
2022/07/29 11:05:08;;;;;;;5.70;2.20;;;20.70;88.40;;;;;;5003920;28;20037;-81
2022/07/29 11:07:34;;;;;;;3.17;2.00;;;20.70;88.00;;;;;;4997496;28;20041;-81
2022/07/29 11:10:12;;;;;;;4.20;2.22;;;20.70;88.20;;;;;;5017462;28;20041;-82
2022/07/29 11:12:38;;;;;;;6.53;2.10;;;20.80;88.30;;;;;;5019142;28;20037;-82
2022/07/29 11:15:05;;;;;;;3.97;2.08;;;21.10;89.80;;;;;;5003790;28;20075;-82
2022/07/29 11:18:00;;;;;;;3.88;2.20;;;21.60;89.20;;;;;;4998701;28;20038;-82
2022/07/29 11:20:41;;;;;;;2.58;1.88;;;22.20;86.60;;;;;;5008682;28;20041;-82
2022/07/29 11:23:31;;;;;;;3.55;2.03;;;22.50;86.80;;;;;;4996800;28;20030;-83
2022/07/29 11:26:25;;;;;;;4.38;1.90;;;22.70;86.10;;;;;;4997629;28;20030;-81
2022/07/29 11:28:53;;;;;;;9.05;2.47;;;22.90;85.20;;;;;;4995021;28;20045;-80
2022/07/29 11:31:34;;;;;;;3.88;1.80;;;23.20;84.80;;;;;;5005423;28;20550;-83
2022/07/29 11:34:21;;;;;;;3.30;2.00;;;23.50;84.10;;;;;;5016125;28;20069;-80
2022/07/29 11:37:09;;;;;;;3.55;1.95;;;23.80;82.20;;;;;;5021095;28;20037;-80
2022/07/29 11:39:36;;;;;;;3.35;2.00;;;23.90;80.20;;;;;;5026864;28;20028;-80
2022/07/29 11:42:20;;;;;;;4.20;1.75;;;24.00;79.00;;;;;;5008847;28;20033;-80
2022/07/29 11:45:06;;;;;;;2.22;1.77;;;24.10;78.20;;;;;;5016719;28;20511;-80
2022/07/29 11:47:53;;;;;;;3.05;1.50;;;24.60;79.90;;;;;;5001669;28;20068;-86
2022/07/29 11:50:36;;;;;;;5.75;1.95;;;25.30;77.80;;;;;;5001561;28;20070;-85
2022/07/29 11:53:03;;;;;;;;;;;25.80;72.90;;;;;;5008455;28;20063;-85
2022/07/29 11:55:31;;;;;;;2.40;1.33;;;26.00;68.90;;;;;;5024203;28;19968;-86
2022/07/29 11:57:59;;;;;;;2.95;1.95;;;26.10;73.60;;;;;;5003393;28;20082;-87
2022/07/29 12:00:32;;;;;;;4.38;1.60;;;26.30;72.30;;;;;;5011347;28;20394;-86
2022/07/29 12:02:58;;;;;;;;;;;26.70;70.50;;;;;;5003968;28;20463;-87
2022/07/29 12:05:33;;;;;;;2.67;1.42;;;26.80;68.10;;;;;;5005988;28;20061;-87
2022/07/29 12:08:07;;;;;;;2.60;1.52;;;26.80;69.00;;;;;;5002089;28;20387;-86
2022/07/29 12:10:33;;;;;;;4.60;2.10;;;26.70;69.30;;;;;;5002999;28;20056;-85
2022/07/29 12:12:59;;;;;;;2.97;2.00;;;26.70;69.20;;;;;;5001868;28;20045;-85
2022/07/29 12:15:25;;;;;;;5.03;2.08;;;27.00;67.70;;;;;;5022215;28;20415;-85
2022/07/29 12:17:52;;;;;;;4.85;1.85;;;27.00;66.70;;;;;;4998588;28;20174;-86
2022/07/29 12:20:30;;;;;;;3.90;1.60;;;26.80;66.80;;;;;;5022950;28;20037;-86
2022/07/29 12:22:56;;;;;;;3.67;2.15;;;26.70;65.70;;;;;;4999124;28;20044;-84
2022/07/29 12:25:23;;;;;;;2.95;1.88;;;26.60;65.30;;;;;;5010961;28;20044;-86
2022/07/29 12:28:04;;;;;;;4.28;2.08;;;26.30;64.80;;;;;;5011161;28;20041;-86
2022/07/29 12:30:39;;;;;;;3.00;2.00;;;25.70;65.40;;;;;;5015074;28;20415;-84
2022/07/29 12:33:31;;;;;;;2.78;2.40;;;25.40;65.40;;;;;;5003765;28;20033;-86
2022/07/29 12:36:01;;;;;;;3.97;2.13;;;24.90;66.10;;;;;;4991085;28;20045;-85
2022/07/29 12:38:28;;;;;;;7.07;2.10;;;24.70;68.00;;;;;;4997640;28;20152;-86
2022/07/29 12:40:54;;;;;;;4.78;2.53;;;24.90;69.10;;;;;;5026766;28;20441;-86
2022/07/29 12:43:22;;;;;;;4.60;2.35;;;25.40;68.20;;;;;;5004101;28;20056;-86
2022/07/29 12:45:49;;;;;;;2.58;2.28;;;25.60;67.40;;;;;;5000842;28;20044;-86
2022/07/29 12:48:16;;;;;;;4.38;2.38;;;25.60;68.00;;;;;;5019049;28;20384;-88
2022/07/29 12:50:57;;;;;;;5.40;2.17;;;26.00;68.30;;;;;;5006829;28;20037;-87
2022/07/29 12:53:24;;;;;;;4.60;2.00;;;26.70;67.80;;;;;;5003420;28;20044;-87
2022/07/29 12:55:52;;;;;;;6.03;2.30;;;27.10;66.90;;;;;;5005475;28;20049;-88
2022/07/29 12:58:35;;;;;;;3.63;1.90;;;27.20;64.30;;;;;;5025203;28;20380;-86
2022/07/29 13:01:15;;;;;;;2.80;1.88;;;27.10;61.40;;;;;;5008940;28;20032;-87
2022/07/29 13:03:51;;;;;;;3.85;1.83;;;26.80;63.20;;;;;;5022296;28;20037;-88
2022/07/29 13:06:33;;;;;;;3.75;1.90;;;26.70;63.60;;;;;;5012085;28;20531;-87